Gibson, Missouri
Current Conditions -  °F | °C
As of 4:53 PM on Friday 31 Oct 2014 (Local Time) from KPOF Reporting Station
Clear Clear  
Wind Chill: 42°   Ceiling: Unl
Heat Index: 49°   Visibility: 10mi
Dew Point: 18°   Wind: 22mph
Humidity: 29%   Direction: 360°N
Pressure: 30.25"   Gusts: 29mph
Location:  36.44°N, 90.03°W
Report Text: KPOF 312153Z AUTO 36019G25KT 10SM CLR 09/M08 A3025 RMK AO2 PK WND 35029/2140 SLP247 T00941078
Loading
Personal Weather Stations






























Interactive Weather Map
Tropical Storm Tracking
New forecast layout! Learn more

10-Day Weather Forecast

Advertisements
Track Severe Weather on mobile